sensor_id;sensor_type;location;lat;lon;timestamp;P1;durP1;ratioP1;P2;durP2;ratioP2
4486;SDS011;2256;48.740;9.106;2023-02-07T00:01:33;15.68;;;7.95;;
4486;SDS011;2256;48.740;9.106;2023-02-07T00:04:14;18.88;;;8.23;;
4486;SDS011;2256;48.740;9.106;2023-02-07T00:06:45;16.40;;;7.93;;
4486;SDS011;2256;48.740;9.106;2023-02-07T00:09:17;16.17;;;8.70;;
4486;SDS011;2256;48.740;9.106;2023-02-07T00:11:45;14.63;;;6.80;;
4486;SDS011;2256;48.740;9.106;2023-02-07T00:14:15;13.65;;;6.80;;
4486;SDS011;2256;48.740;9.106;2023-02-07T00:16:42;15.82;;;7.57;;
4486;SDS011;2256;48.740;9.106;2023-02-07T00:19:09;16.20;;;7.88;;
4486;SDS011;2256;48.740;9.106;2023-02-07T00:21:36;14.65;;;7.63;;
4486;SDS011;2256;48.740;9.106;2023-02-07T00:24:06;16.67;;;7.22;;
4486;SDS011;2256;48.740;9.106;2023-02-07T00:26:48;18.80;;;8.10;;
4486;SDS011;2256;48.740;9.106;2023-02-07T00:29:17;15.95;;;8.00;;
4486;SDS011;2256;48.740;9.106;2023-02-07T00:31:45;9.82;;;6.15;;
4486;SDS011;2256;48.740;9.106;2023-02-07T00:34:13;13.50;;;7.03;;
4486;SDS011;2256;48.740;9.106;2023-02-07T00:36:40;18.70;;;7.22;;
4486;SDS011;2256;48.740;9.106;2023-02-07T00:39:09;15.30;;;7.20;;
4486;SDS011;2256;48.740;9.106;2023-02-07T00:41:38;14.23;;;7.15;;
4486;SDS011;2256;48.740;9.106;2023-02-07T00:44:05;17.05;;;7.30;;
4486;SDS011;2256;48.740;9.106;2023-02-07T00:46:34;14.00;;;6.80;;
4486;SDS011;2256;48.740;9.106;2023-02-07T00:49:01;12.77;;;7.82;;
4486;SDS011;2256;48.740;9.106;2023-02-07T00:51:29;12.32;;;6.70;;
4486;SDS011;2256;48.740;9.106;2023-02-07T00:54:03;14.35;;;7.30;;
4486;SDS011;2256;48.740;9.106;2023-02-07T00:56:35;10.13;;;5.82;;
4486;SDS011;2256;48.740;9.106;2023-02-07T00:59:08;16.10;;;6.18;;
4486;SDS011;2256;48.740;9.106;2023-02-07T01:01:46;15.77;;;6.70;;
4486;SDS011;2256;48.740;9.106;2023-02-07T01:04:16;11.63;;;6.03;;
4486;SDS011;2256;48.740;9.106;2023-02-07T01:06:43;15.55;;;7.10;;
4486;SDS011;2256;48.740;9.106;2023-02-07T01:09:10;17.63;;;6.03;;
4486;SDS011;2256;48.740;9.106;2023-02-07T01:11:37;13.50;;;6.72;;
4486;SDS011;2256;48.740;9.106;2023-02-07T01:14:04;18.50;;;7.20;;
4486;SDS011;2256;48.740;9.106;2023-02-07T01:16:32;16.13;;;6.82;;
4486;SDS011;2256;48.740;9.106;2023-02-07T01:19:02;17.13;;;7.70;;
4486;SDS011;2256;48.740;9.106;2023-02-07T01:21:35;12.13;;;6.60;;
4486;SDS011;2256;48.740;9.106;2023-02-07T01:24:02;14.20;;;7.40;;
4486;SDS011;2256;48.740;9.106;2023-02-07T01:26:30;13.65;;;6.82;;
4486;SDS011;2256;48.740;9.106;2023-02-07T01:28:57;18.20;;;8.38;;
4486;SDS011;2256;48.740;9.106;2023-02-07T01:31:26;15.02;;;7.70;;
4486;SDS011;2256;48.740;9.106;2023-02-07T01:33:55;15.57;;;6.85;;
4486;SDS011;2256;48.740;9.106;2023-02-07T01:36:25;15.00;;;7.03;;
4486;SDS011;2256;48.740;9.106;2023-02-07T01:38:52;14.35;;;6.18;;
4486;SDS011;2256;48.740;9.106;2023-02-07T01:41:20;17.63;;;7.60;;
4486;SDS011;2256;48.740;9.106;2023-02-07T01:43:55;18.85;;;8.23;;
4486;SDS011;2256;48.740;9.106;2023-02-07T01:46:24;14.98;;;7.07;;
4486;SDS011;2256;48.740;9.106;2023-02-07T01:48:52;18.33;;;8.20;;
4486;SDS011;2256;48.740;9.106;2023-02-07T01:51:22;20.98;;;7.88;;
4486;SDS011;2256;48.740;9.106;2023-02-07T01:53:52;24.08;;;8.80;;
4486;SDS011;2256;48.740;9.106;2023-02-07T01:56:21;10.30;;;5.32;;
4486;SDS011;2256;48.740;9.106;2023-02-07T01:58:49;19.13;;;8.23;;
4486;SDS011;2256;48.740;9.106;2023-02-07T02:01:16;24.83;;;9.38;;
4486;SDS011;2256;48.740;9.106;2023-02-07T02:03:51;18.73;;;9.07;;
4486;SDS011;2256;48.740;9.106;2023-02-07T02:06:22;14.18;;;7.18;;
4486;SDS011;2256;48.740;9.106;2023-02-07T02:08:52;15.55;;;9.30;;
4486;SDS011;2256;48.740;9.106;2023-02-07T02:11:35;22.85;;;9.00;;
4486;SDS011;2256;48.740;9.106;2023-02-07T02:14:27;16.23;;;9.00;;
4486;SDS011;2256;48.740;9.106;2023-02-07T02:17:08;16.75;;;8.90;;
4486;SDS011;2256;48.740;9.106;2023-02-07T02:20:03;22.13;;;10.50;;
4486;SDS011;2256;48.740;9.106;2023-02-07T02:22:57;23.17;;;11.75;;
4486;SDS011;2256;48.740;9.106;2023-02-07T02:25:39;23.67;;;10.27;;
4486;SDS011;2256;48.740;9.106;2023-02-07T02:34:12;20.67;;;9.48;;
4486;SDS011;2256;48.740;9.106;2023-02-07T02:36:49;18.63;;;9.18;;
4486;SDS011;2256;48.740;9.106;2023-02-07T02:39:26;29.13;;;10.10;;
4486;SDS011;2256;48.740;9.106;2023-02-07T02:41:58;26.70;;;10.43;;
4486;SDS011;2256;48.740;9.106;2023-02-07T02:44:34;24.38;;;9.55;;
4486;SDS011;2256;48.740;9.106;2023-02-07T02:47:05;23.00;;;11.32;;
4486;SDS011;2256;48.740;9.106;2023-02-07T02:49:36;22.00;;;9.68;;
4486;SDS011;2256;48.740;9.106;2023-02-07T02:52:04;23.80;;;11.60;;
4486;SDS011;2256;48.740;9.106;2023-02-07T02:54:32;20.67;;;8.77;;
4486;SDS011;2256;48.740;9.106;2023-02-07T02:57:16;29.10;;;11.55;;
4486;SDS011;2256;48.740;9.106;2023-02-07T03:00:22;25.55;;;11.80;;
4486;SDS011;2256;48.740;9.106;2023-02-07T03:03:07;18.23;;;9.00;;
4486;SDS011;2256;48.740;9.106;2023-02-07T03:05:55;20.05;;;10.95;;
4486;SDS011;2256;48.740;9.106;2023-02-07T03:08:34;24.50;;;10.43;;
4486;SDS011;2256;48.740;9.106;2023-02-07T03:11:08;18.67;;;8.80;;
4486;SDS011;2256;48.740;9.106;2023-02-07T03:13:40;28.40;;;10.52;;
4486;SDS011;2256;48.740;9.106;2023-02-07T03:16:17;26.20;;;11.38;;
4486;SDS011;2256;48.740;9.106;2023-02-07T03:18:48;20.52;;;11.35;;
4486;SDS011;2256;48.740;9.106;2023-02-07T03:21:23;28.10;;;11.07;;
4486;SDS011;2256;48.740;9.106;2023-02-07T03:23:54;23.38;;;11.93;;
4486;SDS011;2256;48.740;9.106;2023-02-07T03:26:22;21.48;;;9.85;;
4486;SDS011;2256;48.740;9.106;2023-02-07T03:28:52;23.60;;;10.30;;
4486;SDS011;2256;48.740;9.106;2023-02-07T03:31:21;22.98;;;12.15;;
4486;SDS011;2256;48.740;9.106;2023-02-07T03:33:52;18.10;;;8.73;;
4486;SDS011;2256;48.740;9.106;2023-02-07T03:36:26;27.80;;;11.88;;
4486;SDS011;2256;48.740;9.106;2023-02-07T03:38:56;23.67;;;10.15;;
4486;SDS011;2256;48.740;9.106;2023-02-07T03:41:26;28.63;;;12.85;;
4486;SDS011;2256;48.740;9.106;2023-02-07T03:43:57;28.40;;;12.65;;
4486;SDS011;2256;48.740;9.106;2023-02-07T03:46:31;28.17;;;12.63;;
4486;SDS011;2256;48.740;9.106;2023-02-07T03:49:01;26.02;;;13.18;;
4486;SDS011;2256;48.740;9.106;2023-02-07T03:51:29;28.25;;;12.82;;
4486;SDS011;2256;48.740;9.106;2023-02-07T03:53:56;29.35;;;14.32;;
4486;SDS011;2256;48.740;9.106;2023-02-07T03:56:24;31.65;;;13.50;;
4486;SDS011;2256;48.740;9.106;2023-02-07T03:58:51;26.95;;;13.20;;
4486;SDS011;2256;48.740;9.106;2023-02-07T04:01:18;28.73;;;12.75;;
4486;SDS011;2256;48.740;9.106;2023-02-07T04:03:45;29.90;;;12.55;;
4486;SDS011;2256;48.740;9.106;2023-02-07T04:06:12;31.33;;;12.50;;
4486;SDS011;2256;48.740;9.106;2023-02-07T04:08:40;28.63;;;14.27;;
4486;SDS011;2256;48.740;9.106;2023-02-07T04:11:07;30.13;;;13.95;;
4486;SDS011;2256;48.740;9.106;2023-02-07T04:13:34;28.55;;;12.48;;
4486;SDS011;2256;48.740;9.106;2023-02-07T04:16:01;27.02;;;13.02;;
4486;SDS011;2256;48.740;9.106;2023-02-07T04:18:30;29.30;;;13.55;;
4486;SDS011;2256;48.740;9.106;2023-02-07T04:21:00;31.60;;;13.07;;
4486;SDS011;2256;48.740;9.106;2023-02-07T04:23:27;25.85;;;12.90;;
4486;SDS011;2256;48.740;9.106;2023-02-07T04:25:56;29.05;;;13.70;;
4486;SDS011;2256;48.740;9.106;2023-02-07T04:28:23;35.63;;;13.52;;
4486;SDS011;2256;48.740;9.106;2023-02-07T04:30:50;30.85;;;14.07;;
4486;SDS011;2256;48.740;9.106;2023-02-07T04:33:17;31.80;;;13.25;;
4486;SDS011;2256;48.740;9.106;2023-02-07T04:35:45;33.95;;;14.25;;
4486;SDS011;2256;48.740;9.106;2023-02-07T04:38:12;25.40;;;10.00;;
4486;SDS011;2256;48.740;9.106;2023-02-07T04:40:38;34.58;;;12.55;;
4486;SDS011;2256;48.740;9.106;2023-02-07T04:43:07;31.15;;;11.98;;
4486;SDS011;2256;48.740;9.106;2023-02-07T04:45:34;23.10;;;11.30;;
4486;SDS011;2256;48.740;9.106;2023-02-07T04:48:01;23.15;;;11.38;;
4486;SDS011;2256;48.740;9.106;2023-02-07T04:50:28;25.23;;;11.52;;
4486;SDS011;2256;48.740;9.106;2023-02-07T04:52:55;25.50;;;11.93;;
4486;SDS011;2256;48.740;9.106;2023-02-07T04:55:22;36.60;;;13.65;;
4486;SDS011;2256;48.740;9.106;2023-02-07T04:57:48;20.48;;;9.68;;
4486;SDS011;2256;48.740;9.106;2023-02-07T05:00:17;24.67;;;11.25;;
4486;SDS011;2256;48.740;9.106;2023-02-07T05:02:44;23.38;;;10.88;;
4486;SDS011;2256;48.740;9.106;2023-02-07T05:05:11;34.33;;;12.52;;
4486;SDS011;2256;48.740;9.106;2023-02-07T05:07:38;23.50;;;11.63;;
4486;SDS011;2256;48.740;9.106;2023-02-07T05:10:05;26.08;;;10.65;;
4486;SDS011;2256;48.740;9.106;2023-02-07T05:12:32;18.20;;;9.80;;
4486;SDS011;2256;48.740;9.106;2023-02-07T05:14:59;26.23;;;11.43;;
4486;SDS011;2256;48.740;9.106;2023-02-07T05:17:28;20.15;;;11.15;;
4486;SDS011;2256;48.740;9.106;2023-02-07T05:19:58;20.00;;;10.50;;
4486;SDS011;2256;48.740;9.106;2023-02-07T05:22:25;23.13;;;12.02;;
4486;SDS011;2256;48.740;9.106;2023-02-07T05:24:53;23.42;;;11.77;;
4486;SDS011;2256;48.740;9.106;2023-02-07T05:27:21;28.02;;;11.50;;
4486;SDS011;2256;48.740;9.106;2023-02-07T05:29:48;23.17;;;10.38;;
4486;SDS011;2256;48.740;9.106;2023-02-07T05:32:15;27.52;;;10.60;;
4486;SDS011;2256;48.740;9.106;2023-02-07T05:35:01;16.10;;;9.75;;
4486;SDS011;2256;48.740;9.106;2023-02-07T05:37:28;24.30;;;11.45;;
4486;SDS011;2256;48.740;9.106;2023-02-07T05:39:54;23.30;;;9.95;;
4486;SDS011;2256;48.740;9.106;2023-02-07T05:42:21;22.90;;;10.13;;
4486;SDS011;2256;48.740;9.106;2023-02-07T05:44:48;20.50;;;11.15;;
4486;SDS011;2256;48.740;9.106;2023-02-07T05:47:17;23.42;;;11.45;;
4486;SDS011;2256;48.740;9.106;2023-02-07T05:49:45;30.48;;;10.57;;
4486;SDS011;2256;48.740;9.106;2023-02-07T05:52:13;24.02;;;10.88;;
4486;SDS011;2256;48.740;9.106;2023-02-07T05:54:40;25.85;;;11.55;;
4486;SDS011;2256;48.740;9.106;2023-02-07T05:57:07;23.98;;;11.23;;
4486;SDS011;2256;48.740;9.106;2023-02-07T05:59:34;22.15;;;11.30;;
4486;SDS011;2256;48.740;9.106;2023-02-07T06:02:01;22.98;;;10.10;;
4486;SDS011;2256;48.740;9.106;2023-02-07T06:04:28;20.80;;;10.65;;
4486;SDS011;2256;48.740;9.106;2023-02-07T06:06:55;22.23;;;11.40;;
4486;SDS011;2256;48.740;9.106;2023-02-07T06:09:23;17.58;;;10.13;;
4486;SDS011;2256;48.740;9.106;2023-02-07T06:11:51;21.15;;;10.00;;
4486;SDS011;2256;48.740;9.106;2023-02-07T06:14:19;23.58;;;9.32;;
4486;SDS011;2256;48.740;9.106;2023-02-07T06:16:46;18.05;;;10.15;;
4486;SDS011;2256;48.740;9.106;2023-02-07T06:19:13;25.20;;;11.35;;
4486;SDS011;2256;48.740;9.106;2023-02-07T06:21:40;24.10;;;10.63;;
4486;SDS011;2256;48.740;9.106;2023-02-07T06:24:07;22.42;;;9.60;;
4486;SDS011;2256;48.740;9.106;2023-02-07T06:26:36;23.35;;;9.90;;
4486;SDS011;2256;48.740;9.106;2023-02-07T06:29:03;22.08;;;10.35;;
4486;SDS011;2256;48.740;9.106;2023-02-07T06:31:29;21.95;;;10.20;;
4486;SDS011;2256;48.740;9.106;2023-02-07T06:33:56;25.33;;;10.73;;
4486;SDS011;2256;48.740;9.106;2023-02-07T06:36:23;21.98;;;9.85;;
4486;SDS011;2256;48.740;9.106;2023-02-07T06:38:50;21.83;;;10.07;;
4486;SDS011;2256;48.740;9.106;2023-02-07T06:41:19;24.35;;;10.20;;
4486;SDS011;2256;48.740;9.106;2023-02-07T06:43:47;20.75;;;10.20;;
4486;SDS011;2256;48.740;9.106;2023-02-07T06:46:15;22.85;;;10.80;;
4486;SDS011;2256;48.740;9.106;2023-02-07T06:48:42;24.85;;;9.98;;
4486;SDS011;2256;48.740;9.106;2023-02-07T06:51:09;23.85;;;9.88;;
4486;SDS011;2256;48.740;9.106;2023-02-07T06:53:35;21.17;;;9.40;;
4486;SDS011;2256;48.740;9.106;2023-02-07T06:56:02;24.05;;;9.60;;
4486;SDS011;2256;48.740;9.106;2023-02-07T06:58:30;24.08;;;10.18;;
4486;SDS011;2256;48.740;9.106;2023-02-07T07:01:01;25.42;;;10.60;;
4486;SDS011;2256;48.740;9.106;2023-02-07T07:03:31;21.27;;;10.75;;
4486;SDS011;2256;48.740;9.106;2023-02-07T07:05:58;22.38;;;10.40;;
4486;SDS011;2256;48.740;9.106;2023-02-07T07:08:26;28.15;;;10.90;;
4486;SDS011;2256;48.740;9.106;2023-02-07T07:10:53;21.00;;;10.85;;
4486;SDS011;2256;48.740;9.106;2023-02-07T07:13:21;19.55;;;9.57;;
4486;SDS011;2256;48.740;9.106;2023-02-07T07:15:49;26.13;;;10.10;;
4486;SDS011;2256;48.740;9.106;2023-02-07T07:18:17;20.60;;;10.30;;
4486;SDS011;2256;48.740;9.106;2023-02-07T07:20:44;25.23;;;10.82;;
4486;SDS011;2256;48.740;9.106;2023-02-07T07:23:10;21.92;;;10.77;;
4486;SDS011;2256;48.740;9.106;2023-02-07T07:25:38;27.35;;;11.95;;
4486;SDS011;2256;48.740;9.106;2023-02-07T07:28:04;22.65;;;9.93;;
4486;SDS011;2256;48.740;9.106;2023-02-07T07:30:31;21.05;;;9.15;;
4486;SDS011;2256;48.740;9.106;2023-02-07T07:32:58;20.10;;;10.18;;
4486;SDS011;2256;48.740;9.106;2023-02-07T07:35:26;16.58;;;9.18;;
4486;SDS011;2256;48.740;9.106;2023-02-07T07:37:54;19.08;;;10.02;;
4486;SDS011;2256;48.740;9.106;2023-02-07T07:40:21;16.63;;;9.77;;
4486;SDS011;2256;48.740;9.106;2023-02-07T07:42:49;18.05;;;9.60;;
4486;SDS011;2256;48.740;9.106;2023-02-07T07:45:16;30.70;;;10.25;;
4486;SDS011;2256;48.740;9.106;2023-02-07T07:47:43;16.25;;;9.38;;
4486;SDS011;2256;48.740;9.106;2023-02-07T07:50:12;31.50;;;10.05;;
4486;SDS011;2256;48.740;9.106;2023-02-07T07:52:40;24.95;;;9.45;;
4486;SDS011;2256;48.740;9.106;2023-02-07T07:55:07;19.33;;;9.82;;
4486;SDS011;2256;48.740;9.106;2023-02-07T07:57:34;17.85;;;8.52;;
4486;SDS011;2256;48.740;9.106;2023-02-07T08:00:02;22.20;;;10.02;;
4486;SDS011;2256;48.740;9.106;2023-02-07T08:02:30;26.00;;;10.25;;
4486;SDS011;2256;48.740;9.106;2023-02-07T08:04:57;20.35;;;9.40;;
4486;SDS011;2256;48.740;9.106;2023-02-07T08:07:23;20.95;;;9.25;;
4486;SDS011;2256;48.740;9.106;2023-02-07T08:09:52;19.67;;;8.90;;
4486;SDS011;2256;48.740;9.106;2023-02-07T08:12:19;20.58;;;10.15;;
4486;SDS011;2256;48.740;9.106;2023-02-07T08:14:46;29.33;;;10.27;;
4486;SDS011;2256;48.740;9.106;2023-02-07T08:17:13;22.13;;;9.82;;
4486;SDS011;2256;48.740;9.106;2023-02-07T08:19:40;23.75;;;11.13;;
4486;SDS011;2256;48.740;9.106;2023-02-07T08:22:07;20.67;;;9.23;;
4486;SDS011;2256;48.740;9.106;2023-02-07T08:24:34;16.63;;;9.10;;
4486;SDS011;2256;48.740;9.106;2023-02-07T08:27:02;23.48;;;10.65;;
4486;SDS011;2256;48.740;9.106;2023-02-07T08:29:29;20.85;;;10.48;;
4486;SDS011;2256;48.740;9.106;2023-02-07T08:31:56;21.80;;;10.90;;
4486;SDS011;2256;48.740;9.106;2023-02-07T08:34:24;21.25;;;10.15;;
4486;SDS011;2256;48.740;9.106;2023-02-07T08:36:52;22.17;;;10.80;;
4486;SDS011;2256;48.740;9.106;2023-02-07T08:39:20;20.48;;;10.13;;
4486;SDS011;2256;48.740;9.106;2023-02-07T08:41:46;25.48;;;12.00;;
4486;SDS011;2256;48.740;9.106;2023-02-07T08:44:15;24.67;;;10.80;;
4486;SDS011;2256;48.740;9.106;2023-02-07T08:46:42;19.67;;;9.40;;
4486;SDS011;2256;48.740;9.106;2023-02-07T08:49:10;25.98;;;12.27;;
4486;SDS011;2256;48.740;9.106;2023-02-07T08:51:37;18.50;;;10.70;;
4486;SDS011;2256;48.740;9.106;2023-02-07T08:54:04;18.52;;;8.65;;
4486;SDS011;2256;48.740;9.106;2023-02-07T08:56:30;20.20;;;8.65;;
4486;SDS011;2256;48.740;9.106;2023-02-07T08:58:57;20.58;;;10.63;;
4486;SDS011;2256;48.740;9.106;2023-02-07T09:01:25;44.67;;;11.15;;
4486;SDS011;2256;48.740;9.106;2023-02-07T09:03:53;16.85;;;9.20;;
4486;SDS011;2256;48.740;9.106;2023-02-07T09:06:21;17.45;;;10.27;;
4486;SDS011;2256;48.740;9.106;2023-02-07T09:08:48;17.65;;;9.10;;
4486;SDS011;2256;48.740;9.106;2023-02-07T09:11:16;23.02;;;9.40;;
4486;SDS011;2256;48.740;9.106;2023-02-07T09:13:43;15.63;;;8.85;;
4486;SDS011;2256;48.740;9.106;2023-02-07T09:16:11;18.42;;;9.45;;
4486;SDS011;2256;48.740;9.106;2023-02-07T09:18:41;17.50;;;10.07;;
4486;SDS011;2256;48.740;9.106;2023-02-07T09:21:07;19.55;;;9.38;;
4486;SDS011;2256;48.740;9.106;2023-02-07T09:23:34;20.23;;;10.88;;
4486;SDS011;2256;48.740;9.106;2023-02-07T09:26:02;18.23;;;9.73;;
4486;SDS011;2256;48.740;9.106;2023-02-07T09:28:30;25.30;;;8.95;;
4486;SDS011;2256;48.740;9.106;2023-02-07T09:30:58;18.63;;;9.55;;
4486;SDS011;2256;48.740;9.106;2023-02-07T09:33:25;18.92;;;9.93;;
4486;SDS011;2256;48.740;9.106;2023-02-07T09:35:55;17.25;;;9.32;;
4486;SDS011;2256;48.740;9.106;2023-02-07T09:38:22;17.52;;;7.90;;
4486;SDS011;2256;48.740;9.106;2023-02-07T09:40:51;20.27;;;8.95;;
4486;SDS011;2256;48.740;9.106;2023-02-07T09:43:24;25.88;;;9.45;;
4486;SDS011;2256;48.740;9.106;2023-02-07T09:45:56;14.02;;;8.05;;
4486;SDS011;2256;48.740;9.106;2023-02-07T09:48:26;19.17;;;8.45;;
4486;SDS011;2256;48.740;9.106;2023-02-07T09:51:02;14.57;;;8.48;;
4486;SDS011;2256;48.740;9.106;2023-02-07T09:53:33;20.92;;;9.43;;
4486;SDS011;2256;48.740;9.106;2023-02-07T09:56:05;24.27;;;9.15;;
4486;SDS011;2256;48.740;9.106;2023-02-07T09:58:34;17.30;;;8.60;;
4486;SDS011;2256;48.740;9.106;2023-02-07T10:01:05;20.92;;;9.82;;
4486;SDS011;2256;48.740;9.106;2023-02-07T10:03:37;16.77;;;9.05;;
4486;SDS011;2256;48.740;9.106;2023-02-07T10:06:14;19.40;;;9.10;;
4486;SDS011;2256;48.740;9.106;2023-02-07T10:08:46;15.55;;;8.73;;
4486;SDS011;2256;48.740;9.106;2023-02-07T10:11:19;23.75;;;9.45;;
4486;SDS011;2256;48.740;9.106;2023-02-07T10:13:58;17.10;;;9.20;;
4486;SDS011;2256;48.740;9.106;2023-02-07T10:16:40;31.73;;;9.45;;
4486;SDS011;2256;48.740;9.106;2023-02-07T10:19:21;14.52;;;8.55;;
4486;SDS011;2256;48.740;9.106;2023-02-07T10:22:01;20.20;;;9.82;;
4486;SDS011;2256;48.740;9.106;2023-02-07T10:24:50;20.75;;;10.25;;
4486;SDS011;2256;48.740;9.106;2023-02-07T10:27:31;19.40;;;9.57;;
4486;SDS011;2256;48.740;9.106;2023-02-07T10:30:03;22.55;;;9.52;;
4486;SDS011;2256;48.740;9.106;2023-02-07T10:32:36;15.60;;;8.48;;
4486;SDS011;2256;48.740;9.106;2023-02-07T10:35:07;19.73;;;9.15;;
4486;SDS011;2256;48.740;9.106;2023-02-07T10:37:42;18.05;;;9.35;;
4486;SDS011;2256;48.740;9.106;2023-02-07T10:40:13;25.92;;;9.82;;
4486;SDS011;2256;48.740;9.106;2023-02-07T10:42:44;19.30;;;9.73;;
4486;SDS011;2256;48.740;9.106;2023-02-07T10:45:15;20.73;;;9.07;;
4486;SDS011;2256;48.740;9.106;2023-02-07T10:47:44;21.13;;;10.27;;
4486;SDS011;2256;48.740;9.106;2023-02-07T10:50:13;19.35;;;9.48;;
4486;SDS011;2256;48.740;9.106;2023-02-07T10:52:45;14.77;;;8.18;;
4486;SDS011;2256;48.740;9.106;2023-02-07T10:55:16;18.13;;;8.75;;
4486;SDS011;2256;48.740;9.106;2023-02-07T10:57:50;17.05;;;9.35;;
4486;SDS011;2256;48.740;9.106;2023-02-07T11:00:21;19.17;;;8.90;;
4486;SDS011;2256;48.740;9.106;2023-02-07T11:02:54;19.80;;;8.05;;
4486;SDS011;2256;48.740;9.106;2023-02-07T11:05:30;21.13;;;9.57;;
4486;SDS011;2256;48.740;9.106;2023-02-07T11:08:03;21.33;;;9.65;;
4486;SDS011;2256;48.740;9.106;2023-02-07T11:10:42;18.10;;;8.68;;
4486;SDS011;2256;48.740;9.106;2023-02-07T11:13:11;16.85;;;8.57;;
4486;SDS011;2256;48.740;9.106;2023-02-07T11:15:44;18.73;;;7.93;;
4486;SDS011;2256;48.740;9.106;2023-02-07T11:18:25;15.10;;;8.63;;
4486;SDS011;2256;48.740;9.106;2023-02-07T11:21:02;15.85;;;8.05;;
4486;SDS011;2256;48.740;9.106;2023-02-07T11:23:34;19.17;;;8.73;;
4486;SDS011;2256;48.740;9.106;2023-02-07T11:26:01;21.58;;;9.30;;
4486;SDS011;2256;48.740;9.106;2023-02-07T11:28:30;20.98;;;8.57;;
4486;SDS011;2256;48.740;9.106;2023-02-07T11:30:59;17.48;;;8.35;;
4486;SDS011;2256;48.740;9.106;2023-02-07T11:33:28;20.30;;;9.10;;
4486;SDS011;2256;48.740;9.106;2023-02-07T11:36:01;17.55;;;9.43;;
4486;SDS011;2256;48.740;9.106;2023-02-07T11:38:30;22.33;;;9.10;;
4486;SDS011;2256;48.740;9.106;2023-02-07T11:41:02;18.55;;;9.55;;
4486;SDS011;2256;48.740;9.106;2023-02-07T11:43:31;17.48;;;8.82;;
4486;SDS011;2256;48.740;9.106;2023-02-07T11:46:00;14.80;;;8.23;;
4486;SDS011;2256;48.740;9.106;2023-02-07T11:48:34;19.00;;;10.13;;
4486;SDS011;2256;48.740;9.106;2023-02-07T11:51:05;19.13;;;9.15;;
4486;SDS011;2256;48.740;9.106;2023-02-07T11:53:37;13.82;;;8.35;;
4486;SDS011;2256;48.740;9.106;2023-02-07T11:56:06;15.45;;;7.38;;
4486;SDS011;2256;48.740;9.106;2023-02-07T11:58:45;14.18;;;8.25;;
4486;SDS011;2256;48.740;9.106;2023-02-07T12:01:14;18.42;;;9.52;;
4486;SDS011;2256;48.740;9.106;2023-02-07T12:03:45;20.63;;;8.73;;
4486;SDS011;2256;48.740;9.106;2023-02-07T12:06:14;17.83;;;9.15;;
4486;SDS011;2256;48.740;9.106;2023-02-07T12:08:45;16.73;;;8.07;;
4486;SDS011;2256;48.740;9.106;2023-02-07T12:11:14;32.85;;;9.18;;
4486;SDS011;2256;48.740;9.106;2023-02-07T12:13:45;15.25;;;8.50;;
4486;SDS011;2256;48.740;9.106;2023-02-07T12:16:15;25.75;;;8.00;;
4486;SDS011;2256;48.740;9.106;2023-02-07T12:18:47;22.15;;;8.98;;
4486;SDS011;2256;48.740;9.106;2023-02-07T12:21:20;17.50;;;8.43;;
4486;SDS011;2256;48.740;9.106;2023-02-07T12:23:54;21.15;;;9.95;;
4486;SDS011;2256;48.740;9.106;2023-02-07T12:26:25;18.48;;;8.95;;
4486;SDS011;2256;48.740;9.106;2023-02-07T12:29:04;18.83;;;9.55;;
4486;SDS011;2256;48.740;9.106;2023-02-07T12:31:50;37.97;;;8.95;;
4486;SDS011;2256;48.740;9.106;2023-02-07T12:34:26;17.95;;;8.30;;
4486;SDS011;2256;48.740;9.106;2023-02-07T12:36:59;17.83;;;8.93;;
4486;SDS011;2256;48.740;9.106;2023-02-07T12:39:33;19.33;;;9.15;;
4486;SDS011;2256;48.740;9.106;2023-02-07T12:42:10;18.55;;;9.10;;
4486;SDS011;2256;48.740;9.106;2023-02-07T12:44:49;15.63;;;9.48;;
4486;SDS011;2256;48.740;9.106;2023-02-07T12:47:20;13.45;;;8.55;;
4486;SDS011;2256;48.740;9.106;2023-02-07T12:50:10;19.70;;;9.35;;
4486;SDS011;2256;48.740;9.106;2023-02-07T12:52:48;15.43;;;9.25;;
4486;SDS011;2256;48.740;9.106;2023-02-07T12:55:32;28.77;;;9.10;;
4486;SDS011;2256;48.740;9.106;2023-02-07T13:01:01;17.83;;;9.50;;
4486;SDS011;2256;48.740;9.106;2023-02-07T13:06:27;18.95;;;8.93;;
4486;SDS011;2256;48.740;9.106;2023-02-07T13:09:03;18.50;;;7.95;;
4486;SDS011;2256;48.740;9.106;2023-02-07T13:11:38;12.25;;;7.15;;
4486;SDS011;2256;48.740;9.106;2023-02-07T13:14:17;12.00;;;6.85;;
4486;SDS011;2256;48.740;9.106;2023-02-07T13:16:56;19.85;;;9.18;;
4486;SDS011;2256;48.740;9.106;2023-02-07T13:19:33;22.15;;;7.97;;
4486;SDS011;2256;48.740;9.106;2023-02-07T13:22:08;17.63;;;9.48;;
4486;SDS011;2256;48.740;9.106;2023-02-07T13:24:39;14.90;;;8.75;;
4486;SDS011;2256;48.740;9.106;2023-02-07T13:27:11;17.85;;;7.97;;
4486;SDS011;2256;48.740;9.106;2023-02-07T13:29:42;16.80;;;8.13;;
4486;SDS011;2256;48.740;9.106;2023-02-07T13:32:12;13.15;;;8.00;;
4486;SDS011;2256;48.740;9.106;2023-02-07T13:34:44;11.55;;;6.30;;
4486;SDS011;2256;48.740;9.106;2023-02-07T13:37:13;11.27;;;6.07;;
4486;SDS011;2256;48.740;9.106;2023-02-07T13:39:45;12.32;;;6.20;;
4486;SDS011;2256;48.740;9.106;2023-02-07T13:42:22;11.80;;;5.53;;
4486;SDS011;2256;48.740;9.106;2023-02-07T13:44:55;26.25;;;6.13;;
4486;SDS011;2256;48.740;9.106;2023-02-07T13:47:39;12.05;;;5.65;;
4486;SDS011;2256;48.740;9.106;2023-02-07T13:53:18;11.50;;;5.68;;
4486;SDS011;2256;48.740;9.106;2023-02-07T13:55:59;10.05;;;5.88;;
4486;SDS011;2256;48.740;9.106;2023-02-07T14:01:37;9.55;;;6.57;;
4486;SDS011;2256;48.740;9.106;2023-02-07T14:04:16;26.30;;;6.55;;
4486;SDS011;2256;48.740;9.106;2023-02-07T14:06:45;15.75;;;7.97;;
4486;SDS011;2256;48.740;9.106;2023-02-07T14:09:23;12.40;;;7.03;;
4486;SDS011;2256;48.740;9.106;2023-02-07T14:11:57;14.30;;;5.78;;
4486;SDS011;2256;48.740;9.106;2023-02-07T14:14:29;15.52;;;5.05;;
4486;SDS011;2256;48.740;9.106;2023-02-07T14:17:01;8.00;;;4.85;;
4486;SDS011;2256;48.740;9.106;2023-02-07T14:19:51;9.05;;;4.80;;
4486;SDS011;2256;48.740;9.106;2023-02-07T14:22:20;7.95;;;3.95;;
4486;SDS011;2256;48.740;9.106;2023-02-07T14:25:16;12.07;;;4.70;;
4486;SDS011;2256;48.740;9.106;2023-02-07T14:33:37;9.90;;;5.82;;
4486;SDS011;2256;48.740;9.106;2023-02-07T14:36:06;11.48;;;6.55;;
4486;SDS011;2256;48.740;9.106;2023-02-07T14:41:34;7.38;;;4.15;;
4486;SDS011;2256;48.740;9.106;2023-02-07T14:44:07;9.95;;;4.20;;
4486;SDS011;2256;48.740;9.106;2023-02-07T14:46:50;6.78;;;3.25;;
4486;SDS011;2256;48.740;9.106;2023-02-07T14:49:21;6.32;;;3.58;;
4486;SDS011;2256;48.740;9.106;2023-02-07T14:51:57;5.85;;;3.60;;
4486;SDS011;2256;48.740;9.106;2023-02-07T14:54:26;5.05;;;3.40;;
4486;SDS011;2256;48.740;9.106;2023-02-07T14:57:00;3.70;;;2.55;;
4486;SDS011;2256;48.740;9.106;2023-02-07T14:59:34;4.10;;;2.53;;
4486;SDS011;2256;48.740;9.106;2023-02-07T15:04:58;5.50;;;2.75;;
4486;SDS011;2256;48.740;9.106;2023-02-07T15:07:41;14.25;;;3.22;;
4486;SDS011;2256;48.740;9.106;2023-02-07T15:10:14;4.13;;;2.83;;
4486;SDS011;2256;48.740;9.106;2023-02-07T15:12:45;11.98;;;3.03;;
4486;SDS011;2256;48.740;9.106;2023-02-07T15:15:16;3.65;;;3.03;;
4486;SDS011;2256;48.740;9.106;2023-02-07T15:17:47;6.05;;;3.13;;
4486;SDS011;2256;48.740;9.106;2023-02-07T15:20:15;5.85;;;3.25;;
4486;SDS011;2256;48.740;9.106;2023-02-07T15:22:45;6.57;;;3.60;;
4486;SDS011;2256;48.740;9.106;2023-02-07T15:25:13;7.85;;;3.58;;
4486;SDS011;2256;48.740;9.106;2023-02-07T15:27:41;6.22;;;4.00;;
4486;SDS011;2256;48.740;9.106;2023-02-07T15:30:15;15.63;;;4.10;;
4486;SDS011;2256;48.740;9.106;2023-02-07T15:32:44;22.45;;;3.80;;
4486;SDS011;2256;48.740;9.106;2023-02-07T15:35:16;5.35;;;3.08;;
4486;SDS011;2256;48.740;9.106;2023-02-07T15:37:45;10.20;;;4.60;;
4486;SDS011;2256;48.740;9.106;2023-02-07T15:40:13;9.93;;;4.80;;
4486;SDS011;2256;48.740;9.106;2023-02-07T15:42:49;10.35;;;4.90;;
4486;SDS011;2256;48.740;9.106;2023-02-07T15:45:22;13.30;;;5.05;;
4486;SDS011;2256;48.740;9.106;2023-02-07T15:47:57;10.07;;;4.95;;
4486;SDS011;2256;48.740;9.106;2023-02-07T15:50:27;7.80;;;5.15;;